logo
Search for airport 
image banner adimage banner adimage banner ad
image banner ad

MMDLM - Los Terreros

Located in Zaragoza, Mexico

ICAO - , IATA -

Data provided by Airmate  

General information

Coordinates: N28°40'36" W101°31'58"
Elevation is 3100 feet MSL.
Magnetic variation is 5° East
View others Airports in Coahuila

Operational data

Special qualification required
Current time UTC:
Current local time:
Weather at : - ( 0 km )
METAR: ZMUB 180700Z 33007G13MPS CAVOK 09/M17 Q1020 NOSIG RMK QFE657.1 15
View NOTAMs / SUP AIP / TFR affecting this airport [VIEW]
Communications frequencies: [VIEW]

Runways:

RWY identifierQFULength (ft)Width (ft)SurfaceLDA (ft)
23240°321525DIRT
0560°321525DIRT

Airport contact information

Address: Zaragoza Mexico

Satellite view of MMDLM